createdAt,value
2023-06-11T00:01:10.869Z,4.07
2023-06-11T00:03:38.862Z,3.97
2023-06-11T00:06:07.520Z,3.95
2023-06-11T00:08:35.692Z,4.03
2023-06-11T00:11:03.619Z,4.18
2023-06-11T00:13:31.552Z,4.03
2023-06-11T00:15:59.484Z,3.78
2023-06-11T00:18:27.664Z,4.20
2023-06-11T00:20:55.738Z,3.95
2023-06-11T00:23:23.617Z,4.05
2023-06-11T00:25:52.565Z,4.30
2023-06-11T00:28:21.153Z,4.00
2023-06-11T00:30:49.066Z,4.22
2023-06-11T00:33:17.115Z,4.03
2023-06-11T00:35:45.080Z,4.07
2023-06-11T00:38:13.598Z,4.20
2023-06-11T00:40:41.581Z,4.07
2023-06-11T00:43:10.010Z,4.53
2023-06-11T00:45:39.585Z,3.87
2023-06-11T00:48:08.465Z,4.22
2023-06-11T00:50:47.544Z,4.43
2023-06-11T00:53:16.210Z,4.65
2023-06-11T00:55:44.180Z,4.22
2023-06-11T00:58:19.736Z,4.35
2023-06-11T01:00:51.540Z,4.55
2023-06-11T01:03:29.243Z,4.40
2023-06-11T01:06:06.685Z,4.28
2023-06-11T01:08:41.415Z,4.00
2023-06-11T01:11:16.247Z,4.12
2023-06-11T01:13:44.363Z,4.47
2023-06-11T01:16:17.721Z,4.10
2023-06-11T01:19:00.570Z,4.55
2023-06-11T01:21:35.539Z,3.95
2023-06-11T01:24:42.771Z,4.03
2023-06-11T01:27:21.114Z,4.30
2023-06-11T01:29:51.809Z,4.37
2023-06-11T01:32:26.176Z,4.35
2023-06-11T01:35:05.241Z,4.95
2023-06-11T01:37:35.321Z,4.10
2023-06-11T01:40:03.217Z,4.70
2023-06-11T01:42:31.094Z,4.57
2023-06-11T01:44:58.928Z,4.57
2023-06-11T01:47:26.958Z,4.25
2023-06-11T01:49:54.929Z,4.60
2023-06-11T01:52:22.913Z,4.57
2023-06-11T01:54:50.852Z,4.40
2023-06-11T01:57:18.806Z,4.68
2023-06-11T01:59:46.884Z,4.53
2023-06-11T02:02:15.030Z,4.45
2023-06-11T02:04:42.970Z,4.30
2023-06-11T02:07:10.933Z,3.95
2023-06-11T02:09:38.862Z,4.03
2023-06-11T02:12:08.422Z,4.87
2023-06-11T02:14:36.406Z,5.00
2023-06-11T02:17:04.448Z,5.10
2023-06-11T02:19:32.366Z,4.78
2023-06-11T02:22:00.276Z,5.10
2023-06-11T02:24:28.736Z,4.60
2023-06-11T02:26:56.798Z,5.82
2023-06-11T02:29:24.848Z,4.97
2023-06-11T02:31:52.770Z,5.40
2023-06-11T02:34:20.728Z,5.75
2023-06-11T02:36:48.684Z,4.95
2023-06-11T02:39:17.198Z,5.50
2023-06-11T02:41:45.093Z,4.53
2023-06-11T02:44:12.995Z,5.05
2023-06-11T02:46:41.019Z,5.30
2023-06-11T02:49:09.056Z,5.35
2023-06-11T02:51:37.077Z,5.10
2023-06-11T02:54:06.439Z,5.62
2023-06-11T02:56:34.429Z,5.57
2023-06-11T02:59:02.409Z,5.18
2023-06-11T03:01:30.648Z,5.30
2023-06-11T03:03:58.537Z,5.70
2023-06-11T03:06:26.695Z,5.82
2023-06-11T03:08:55.724Z,5.43
2023-06-11T03:11:23.728Z,5.93
2023-06-11T03:13:51.625Z,5.32
2023-06-11T03:16:19.584Z,5.90
2023-06-11T03:18:48.590Z,5.50
2023-06-11T03:21:16.685Z,5.20
2023-06-11T03:23:44.692Z,5.32
2023-06-11T03:26:12.646Z,5.10
2023-06-11T03:28:40.635Z,5.35
2023-06-11T03:31:08.792Z,5.60
2023-06-11T03:33:36.987Z,5.72
2023-06-11T03:36:05.013Z,5.65
2023-06-11T03:38:33.080Z,6.10
2023-06-11T03:41:01.123Z,5.82
2023-06-11T03:43:29.134Z,6.50
2023-06-11T03:45:57.117Z,5.95
2023-06-11T03:48:25.001Z,5.85
2023-06-11T03:50:52.957Z,5.93
2023-06-11T03:53:20.930Z,5.85
2023-06-11T03:55:48.870Z,6.30
2023-06-11T03:58:16.849Z,6.00
2023-06-11T04:00:44.770Z,6.30
2023-06-11T04:03:12.876Z,6.12
2023-06-11T04:05:40.917Z,6.15
2023-06-11T04:08:09.038Z,5.93
2023-06-11T04:10:37.106Z,6.57
2023-06-11T04:13:05.145Z,6.97
2023-06-11T04:15:34.582Z,7.75
2023-06-11T04:18:02.518Z,7.28
2023-06-11T04:20:30.534Z,7.00
2023-06-11T04:22:59.771Z,7.15
2023-06-11T04:25:27.866Z,7.12
2023-06-11T04:27:55.767Z,7.18
2023-06-11T04:30:23.787Z,7.30
2023-06-11T04:32:57.181Z,6.55
2023-06-11T04:35:28.572Z,6.68
2023-06-11T04:37:58.210Z,6.78
2023-06-11T04:40:26.501Z,6.57
2023-06-11T04:42:54.493Z,6.18
2023-06-11T04:45:22.940Z,6.80
2023-06-11T04:47:52.643Z,6.87
2023-06-11T04:50:23.766Z,6.95
2023-06-11T04:52:54.932Z,5.28
2023-06-11T04:55:26.926Z,7.10
2023-06-11T04:57:56.729Z,7.03
2023-06-11T05:00:24.819Z,7.15
2023-06-11T05:02:54.335Z,5.40
2023-06-11T05:05:22.328Z,7.10
2023-06-11T05:07:50.308Z,6.07
2023-06-11T05:10:20.220Z,5.70
2023-06-11T05:12:48.185Z,6.65
2023-06-11T05:15:16.208Z,6.82
2023-06-11T05:17:44.178Z,6.82
2023-06-11T05:20:13.259Z,6.15
2023-06-11T05:22:41.980Z,6.47
2023-06-11T05:25:11.227Z,5.53
2023-06-11T05:27:39.513Z,6.60
2023-06-11T05:30:08.228Z,6.60
2023-06-11T05:32:36.213Z,6.57
2023-06-11T05:35:06.257Z,6.85
2023-06-11T05:37:34.242Z,5.80
2023-06-11T05:40:02.274Z,6.65
2023-06-11T05:42:30.241Z,6.65
2023-06-11T05:44:58.254Z,7.15
2023-06-11T05:47:26.209Z,6.65
2023-06-11T05:49:54.259Z,6.50
2023-06-11T05:52:22.418Z,6.47
2023-06-11T05:54:50.552Z,6.50
2023-06-11T05:57:23.055Z,6.20
2023-06-11T05:59:51.602Z,6.80
2023-06-11T06:02:20.352Z,7.40
2023-06-11T06:04:50.271Z,6.45
2023-06-11T06:07:18.825Z,6.65
2023-06-11T06:09:46.990Z,6.40
2023-06-11T06:12:14.935Z,5.40
2023-06-11T06:14:42.901Z,6.20
2023-06-11T06:17:10.790Z,5.93
2023-06-11T06:19:38.703Z,7.40
2023-06-11T06:22:07.054Z,7.40
2023-06-11T06:24:35.085Z,6.45
2023-06-11T06:27:03.198Z,7.05
2023-06-11T06:29:31.152Z,7.10
2023-06-11T06:31:59.079Z,7.30
2023-06-11T06:34:28.473Z,6.80
2023-06-11T06:36:56.455Z,7.03
2023-06-11T06:39:24.408Z,7.18
2023-06-11T06:41:52.387Z,7.40
2023-06-11T06:44:20.344Z,6.93
2023-06-11T06:46:48.347Z,7.03
2023-06-11T06:49:16.238Z,7.00
2023-06-11T06:51:44.214Z,6.57
2023-06-11T06:54:12.172Z,7.07
2023-06-11T06:56:40.111Z,6.72
2023-06-11T06:59:08.824Z,7.15
2023-06-11T07:01:37.146Z,7.32
2023-06-11T07:04:05.244Z,6.50
2023-06-11T07:06:33.420Z,7.37
2023-06-11T07:09:01.410Z,6.32
2023-06-11T07:11:29.391Z,6.78
2023-06-11T07:13:57.655Z,6.97
2023-06-11T07:16:25.645Z,6.60
2023-06-11T07:18:53.820Z,6.95
2023-06-11T07:21:21.852Z,6.87
2023-06-11T07:23:49.892Z,7.05
2023-06-11T07:26:18.206Z,6.40
2023-06-11T07:28:46.421Z,6.93
2023-06-11T07:31:15.271Z,7.25
2023-06-11T07:33:45.183Z,6.70
2023-06-11T07:36:13.199Z,7.15
2023-06-11T07:38:41.263Z,7.15
2023-06-11T07:41:09.279Z,6.80
2023-06-11T07:43:37.169Z,6.60
2023-06-11T07:46:06.019Z,7.07
2023-06-11T07:48:34.169Z,6.47
2023-06-11T07:51:02.104Z,6.90
2023-06-11T07:53:30.989Z,6.35
2023-06-11T07:55:59.428Z,7.55
2023-06-11T07:58:27.511Z,6.25
2023-06-11T08:00:55.569Z,6.57
2023-06-11T08:03:23.910Z,7.03
2023-06-11T08:05:53.167Z,7.05
2023-06-11T08:08:21.156Z,7.07
2023-06-11T08:10:52.986Z,6.90
2023-06-11T08:13:21.014Z,7.25
2023-06-11T08:15:48.978Z,7.50
2023-06-11T08:18:19.603Z,7.32
2023-06-11T08:20:47.907Z,7.37
2023-06-11T08:23:15.930Z,7.12
2023-06-11T08:25:44.248Z,7.22
2023-06-11T08:28:12.265Z,7.20
2023-06-11T08:30:40.239Z,7.03
2023-06-11T08:33:08.287Z,7.12
2023-06-11T08:35:36.322Z,6.90
2023-06-11T08:38:04.202Z,6.35
2023-06-11T08:40:32.744Z,6.68
2023-06-11T08:43:00.808Z,6.65
2023-06-11T08:45:28.809Z,6.40
2023-06-11T08:47:59.315Z,6.97
2023-06-11T08:50:27.989Z,6.82
2023-06-11T08:52:55.943Z,6.87
2023-06-11T08:55:24.053Z,6.65
2023-06-11T08:57:53.179Z,6.85
2023-06-11T09:00:21.693Z,7.43
2023-06-11T09:02:49.978Z,6.68
2023-06-11T09:05:18.172Z,6.97
2023-06-11T09:07:55.956Z,6.37
2023-06-11T09:10:23.929Z,6.87
2023-06-11T09:12:53.153Z,6.32
2023-06-11T09:15:22.943Z,6.28
2023-06-11T09:17:51.042Z,6.18
2023-06-11T09:20:19.183Z,6.30
2023-06-11T09:22:48.097Z,6.43
2023-06-11T09:25:20.566Z,6.37
2023-06-11T09:27:50.151Z,6.45
2023-06-11T09:30:20.432Z,6.15
2023-06-11T09:32:51.118Z,6.03
2023-06-11T09:35:22.145Z,6.30
2023-06-11T09:37:53.231Z,5.72
2023-06-11T09:40:25.664Z,6.35
2023-06-11T09:42:53.630Z,6.15
2023-06-11T09:45:23.325Z,5.65
2023-06-11T09:47:53.510Z,5.95
2023-06-11T09:50:22.468Z,5.60
2023-06-11T09:52:52.541Z,5.62
2023-06-11T09:55:20.854Z,5.85
2023-06-11T09:57:49.504Z,5.60
2023-06-11T10:00:18.039Z,5.28
2023-06-11T10:02:46.846Z,5.28
2023-06-11T10:05:15.462Z,4.82
2023-06-11T10:08:18.534Z,5.72
2023-06-11T10:10:49.910Z,4.93
2023-06-11T10:13:31.746Z,4.70
2023-06-11T10:16:04.890Z,4.60
2023-06-11T10:18:33.044Z,5.50
2023-06-11T10:21:03.565Z,4.68
2023-06-11T10:23:41.079Z,5.00
2023-06-11T10:26:11.981Z,4.90
2023-06-11T10:28:44.461Z,4.70
2023-06-11T10:31:12.482Z,4.82
2023-06-11T10:33:47.497Z,4.75
2023-06-11T10:36:28.252Z,4.82
2023-06-11T10:39:26.096Z,4.40
2023-06-11T10:42:02.306Z,4.55
2023-06-11T10:44:34.125Z,4.07
2023-06-11T10:47:02.986Z,3.85
2023-06-11T10:49:31.241Z,4.45
2023-06-11T10:52:03.417Z,4.28
2023-06-11T10:54:37.854Z,4.22
2023-06-11T10:57:06.756Z,3.92
2023-06-11T10:59:34.741Z,4.03
2023-06-11T11:02:02.921Z,4.43
2023-06-11T11:04:30.941Z,3.60
2023-06-11T11:07:10.675Z,3.60
2023-06-11T11:09:38.741Z,4.18
2023-06-11T11:12:08.156Z,3.85
2023-06-11T11:14:36.572Z,4.20
2023-06-11T11:17:05.092Z,3.17
2023-06-11T11:19:33.399Z,3.35
2023-06-11T11:22:01.422Z,3.70
2023-06-11T11:24:32.001Z,4.18
2023-06-11T11:27:00.085Z,3.85
2023-06-11T11:29:28.171Z,4.03
2023-06-11T11:31:56.378Z,4.03
2023-06-11T11:34:24.874Z,3.83
2023-06-11T11:36:53.131Z,3.42
2023-06-11T11:39:21.251Z,4.18
2023-06-11T11:41:51.040Z,3.70
2023-06-11T11:44:19.753Z,4.15
2023-06-11T11:46:47.890Z,3.67
2023-06-11T11:49:15.901Z,3.95
2023-06-11T11:51:48.094Z,4.07
2023-06-11T11:54:17.257Z,4.05
2023-06-11T11:56:45.341Z,4.30
2023-06-11T11:59:22.606Z,4.10
2023-06-11T12:02:01.687Z,3.87
2023-06-11T12:04:38.315Z,4.78
2023-06-11T12:07:17.343Z,4.10
2023-06-11T12:09:45.327Z,4.10
2023-06-11T12:12:13.406Z,3.75
2023-06-11T12:14:41.556Z,4.60
2023-06-11T12:17:12.719Z,3.83
2023-06-11T12:19:40.790Z,3.87
2023-06-11T12:22:08.951Z,3.55
2023-06-11T12:24:38.778Z,3.70
2023-06-11T12:27:11.164Z,3.97
2023-06-11T12:29:40.474Z,3.95
2023-06-11T12:32:15.476Z,3.53
2023-06-11T12:34:43.575Z,4.10
2023-06-11T12:37:12.710Z,3.72
2023-06-11T12:39:45.664Z,3.78
2023-06-11T12:42:13.757Z,3.90
2023-06-11T12:44:43.901Z,3.55
2023-06-11T12:47:12.363Z,3.30
2023-06-11T12:49:40.445Z,3.03
2023-06-11T12:52:10.992Z,3.40
2023-06-11T12:54:39.115Z,3.47
2023-06-11T12:57:07.511Z,3.30
2023-06-11T12:59:35.627Z,3.30
2023-06-11T13:02:03.580Z,3.62
2023-06-11T13:04:31.572Z,3.55
2023-06-11T13:06:59.813Z,3.20
2023-06-11T13:09:27.972Z,3.25
2023-06-11T13:11:56.013Z,3.33
2023-06-11T13:14:24.003Z,3.05
2023-06-11T13:16:53.898Z,3.40
2023-06-11T13:19:21.875Z,3.78
2023-06-11T13:21:50.181Z,3.45
2023-06-11T13:24:18.364Z,3.85
2023-06-11T13:26:46.995Z,3.65
2023-06-11T13:29:14.986Z,3.30
2023-06-11T13:31:42.982Z,3.70
2023-06-11T13:34:11.009Z,3.20
2023-06-11T13:36:38.996Z,3.10
2023-06-11T13:39:06.887Z,3.30
2023-06-11T13:41:35.343Z,3.60
2023-06-11T13:44:04.628Z,3.40
2023-06-11T13:46:34.018Z,3.25
2023-06-11T13:49:02.001Z,3.37
2023-06-11T13:51:33.200Z,3.20
2023-06-11T13:54:01.471Z,4.10
2023-06-11T13:56:30.072Z,3.80
2023-06-11T13:58:58.168Z,3.65
2023-06-11T14:01:26.310Z,3.72
2023-06-11T14:03:54.573Z,3.25
2023-06-11T14:06:22.773Z,3.55
2023-06-11T14:08:50.845Z,3.40
2023-06-11T14:11:19.564Z,2.90
2023-06-11T14:13:47.542Z,3.20
2023-06-11T14:16:15.629Z,3.17
2023-06-11T14:18:43.624Z,3.20
2023-06-11T14:21:11.545Z,3.03
2023-06-11T14:23:39.568Z,3.40
2023-06-11T14:26:07.551Z,3.62
2023-06-11T14:28:35.571Z,2.67
2023-06-11T14:31:07.190Z,2.95
2023-06-11T14:33:35.207Z,3.00
2023-06-11T14:36:07.366Z,3.50
2023-06-11T14:38:35.553Z,3.17
2023-06-11T14:41:03.622Z,3.17
2023-06-11T14:43:31.620Z,3.12
2023-06-11T14:45:59.822Z,2.62
2023-06-11T14:48:27.753Z,3.47
2023-06-11T14:50:57.182Z,3.20
2023-06-11T14:53:25.127Z,3.00
2023-06-11T14:55:53.165Z,3.47
2023-06-11T14:58:21.192Z,3.37
2023-06-11T15:00:49.139Z,3.62
2023-06-11T15:03:18.223Z,3.40
2023-06-11T15:05:47.270Z,3.50
2023-06-11T15:08:15.917Z,3.22
2023-06-11T15:10:43.865Z,3.17
2023-06-11T15:13:11.930Z,3.08
2023-06-11T15:15:39.878Z,3.10
2023-06-11T15:18:09.893Z,3.50
2023-06-11T15:20:37.818Z,3.10
2023-06-11T15:23:07.631Z,3.30
2023-06-11T15:25:37.627Z,3.28
2023-06-11T15:28:05.904Z,2.72
2023-06-11T15:30:33.934Z,2.97
2023-06-11T15:33:02.009Z,3.62
2023-06-11T15:35:30.010Z,3.20
2023-06-11T15:37:58.270Z,3.10
2023-06-11T15:40:26.255Z,3.12
2023-06-11T15:42:54.312Z,3.17
2023-06-11T15:45:22.472Z,3.03
2023-06-11T15:47:50.490Z,3.47
2023-06-11T15:50:18.534Z,3.08
2023-06-11T15:52:47.022Z,3.25
2023-06-11T15:55:15.244Z,3.03
2023-06-11T15:57:43.861Z,3.15
2023-06-11T16:00:12.609Z,3.35
2023-06-11T16:02:40.896Z,3.10
2023-06-11T16:05:09.524Z,3.22
2023-06-11T16:07:37.731Z,2.62
2023-06-11T16:10:06.052Z,3.33
2023-06-11T16:12:33.940Z,3.70
2023-06-11T16:15:01.915Z,3.22
2023-06-11T16:17:29.956Z,3.78
2023-06-11T16:19:58.859Z,3.42
2023-06-11T16:22:27.035Z,3.08
2023-06-11T16:24:55.011Z,3.08
2023-06-11T16:27:22.995Z,3.17
2023-06-11T16:29:50.986Z,2.97
2023-06-11T16:32:20.018Z,3.70
2023-06-11T16:34:48.074Z,8.60
2023-06-11T16:37:16.027Z,3.50
2023-06-11T16:39:43.948Z,3.72
2023-06-11T16:42:13.091Z,3.72
2023-06-11T16:44:41.087Z,3.28
2023-06-11T16:47:09.185Z,3.03
2023-06-11T16:49:37.185Z,3.25
2023-06-11T16:52:06.079Z,3.05
2023-06-11T16:54:34.047Z,3.03
2023-06-11T16:57:02.529Z,2.80
2023-06-11T16:59:30.467Z,2.92
2023-06-11T17:01:58.454Z,2.78
2023-06-11T17:04:26.314Z,2.53
2023-06-11T17:06:54.355Z,2.67
2023-06-11T17:09:23.446Z,2.53
2023-06-11T17:11:51.437Z,3.10
2023-06-11T17:14:19.573Z,2.90
2023-06-11T17:16:47.600Z,3.03
2023-06-11T17:19:15.733Z,2.75
2023-06-11T17:21:43.854Z,3.08
2023-06-11T17:24:12.586Z,3.25
2023-06-11T17:26:43.694Z,2.58
2023-06-11T17:29:12.385Z,2.78
2023-06-11T17:31:40.354Z,3.08
2023-06-11T17:34:08.583Z,2.87
2023-06-11T17:36:36.657Z,2.92
2023-06-11T17:39:04.675Z,2.90
2023-06-11T17:41:32.706Z,3.05
2023-06-11T17:44:00.863Z,3.00
2023-06-11T17:46:28.936Z,2.92
2023-06-11T17:48:56.976Z,3.03
2023-06-11T17:51:24.884Z,2.65
2023-06-11T17:53:52.945Z,2.92
2023-06-11T17:56:20.967Z,2.95
2023-06-11T17:58:48.992Z,2.75
2023-06-11T18:01:17.169Z,3.35
2023-06-11T18:03:45.314Z,3.10
2023-06-11T18:06:14.051Z,2.92
2023-06-11T18:08:43.515Z,3.25
2023-06-11T18:11:11.736Z,3.17
2023-06-11T18:13:39.710Z,2.90
2023-06-11T18:16:07.721Z,2.70
2023-06-11T18:18:35.692Z,3.47
2023-06-11T18:21:03.618Z,3.12
2023-06-11T18:23:31.604Z,3.15
2023-06-11T18:25:59.727Z,2.83
2023-06-11T18:28:28.047Z,3.20
2023-06-11T18:30:56.264Z,3.08
2023-06-11T18:33:24.384Z,2.90
2023-06-11T18:35:52.897Z,3.10
2023-06-11T18:38:21.020Z,3.10
2023-06-11T18:40:49.000Z,3.03
2023-06-11T18:43:17.015Z,2.50
2023-06-11T18:45:45.039Z,2.90
2023-06-11T18:48:13.144Z,3.08
2023-06-11T18:50:41.196Z,3.10
2023-06-11T18:53:09.645Z,2.85
2023-06-11T18:55:37.829Z,2.85
2023-06-11T18:58:07.719Z,2.47
2023-06-11T19:00:38.235Z,3.22
2023-06-11T19:03:06.357Z,2.62
2023-06-11T19:05:34.430Z,3.03
2023-06-11T19:08:02.479Z,3.22
2023-06-11T19:10:30.480Z,2.90
2023-06-11T19:12:58.690Z,2.90
2023-06-11T19:15:26.737Z,2.87
2023-06-11T19:17:54.678Z,2.92
2023-06-11T19:20:22.762Z,2.60
2023-06-11T19:22:50.753Z,2.97
2023-06-11T19:25:18.715Z,2.90
2023-06-11T19:27:46.725Z,2.83
2023-06-11T19:30:16.358Z,2.83
2023-06-11T19:32:44.393Z,2.92
2023-06-11T19:35:12.475Z,2.62
2023-06-11T19:37:40.444Z,2.58
2023-06-11T19:40:09.876Z,2.80
2023-06-11T19:42:38.279Z,2.85
2023-06-11T19:45:07.987Z,3.03
2023-06-11T19:47:36.512Z,2.58
2023-06-11T19:50:07.944Z,2.62
2023-06-11T19:52:36.529Z,2.92
2023-06-11T19:55:04.802Z,3.12
2023-06-11T19:57:32.759Z,3.08
2023-06-11T20:00:01.880Z,2.65
2023-06-11T20:02:29.856Z,2.97
2023-06-11T20:04:58.231Z,2.80
2023-06-11T20:07:26.437Z,2.87
2023-06-11T20:09:54.476Z,2.92
2023-06-11T20:12:22.410Z,3.00
2023-06-11T20:14:50.411Z,2.78
2023-06-11T20:17:18.328Z,2.70
2023-06-11T20:19:46.470Z,2.97
2023-06-11T20:22:14.486Z,2.83
2023-06-11T20:24:42.550Z,2.75
2023-06-11T20:27:10.486Z,2.70
2023-06-11T20:29:38.583Z,3.20
2023-06-11T20:32:10.415Z,2.90
2023-06-11T20:34:39.770Z,2.80
2023-06-11T20:37:07.988Z,3.00
2023-06-11T20:39:35.971Z,3.05
2023-06-11T20:42:03.944Z,2.83
2023-06-11T20:44:32.025Z,2.85
2023-06-11T20:46:59.952Z,2.85
2023-06-11T20:49:28.161Z,3.05
2023-06-11T20:51:56.126Z,3.15
2023-06-11T20:54:24.026Z,2.95
2023-06-11T20:56:52.014Z,2.87
2023-06-11T20:59:20.146Z,3.05
2023-06-11T21:01:48.542Z,2.80
2023-06-11T21:04:16.930Z,3.05
2023-06-11T21:06:44.963Z,2.90
2023-06-11T21:09:13.085Z,3.30
2023-06-11T21:11:41.010Z,2.70
2023-06-11T21:14:14.243Z,2.90
2023-06-11T21:16:42.761Z,2.95
2023-06-11T21:19:11.010Z,3.25
2023-06-11T21:21:39.272Z,2.67
2023-06-11T21:24:07.759Z,3.03
2023-06-11T21:26:35.793Z,3.10
2023-06-11T21:29:05.434Z,3.47
2023-06-11T21:31:33.711Z,2.80
2023-06-11T21:34:02.466Z,2.97
2023-06-11T21:36:30.455Z,3.12
2023-06-11T21:38:58.557Z,3.33
2023-06-11T21:41:26.682Z,3.05
2023-06-11T21:43:54.590Z,3.03
2023-06-11T21:46:22.579Z,3.20
2023-06-11T21:48:50.794Z,3.10
2023-06-11T21:51:19.031Z,3.60
2023-06-11T21:53:47.209Z,3.20
2023-06-11T21:56:15.138Z,2.85
2023-06-11T21:58:43.002Z,3.10
2023-06-11T22:01:10.967Z,3.60
2023-06-11T22:03:38.987Z,3.03
2023-06-11T22:06:07.276Z,2.95
2023-06-11T22:08:37.151Z,2.85
2023-06-11T22:11:05.420Z,2.80
2023-06-11T22:13:35.198Z,3.10
2023-06-11T22:16:03.142Z,3.10
2023-06-11T22:18:31.457Z,2.83
2023-06-11T22:21:00.270Z,3.30
2023-06-11T22:23:45.209Z,2.70
2023-06-11T22:26:16.478Z,3.30
2023-06-11T22:28:44.431Z,3.15
2023-06-11T22:31:12.304Z,2.90
2023-06-11T22:33:40.246Z,3.22
2023-06-11T22:36:08.418Z,3.22
2023-06-11T22:38:36.404Z,3.30
2023-06-11T22:41:04.296Z,3.50
2023-06-11T22:43:33.713Z,3.05
2023-06-11T22:46:01.639Z,3.03
2023-06-11T22:48:29.570Z,3.17
2023-06-11T22:50:59.173Z,3.50
2023-06-11T22:53:30.184Z,3.12
2023-06-11T22:56:03.668Z,3.37
2023-06-11T22:58:31.840Z,3.30
2023-06-11T23:00:59.859Z,2.90
2023-06-11T23:03:27.932Z,3.70
2023-06-11T23:05:55.887Z,3.35
2023-06-11T23:08:24.057Z,3.22
2023-06-11T23:10:52.044Z,2.40
2023-06-11T23:13:19.997Z,3.03
2023-06-11T23:15:48.227Z,2.95
2023-06-11T23:18:19.427Z,3.05
2023-06-11T23:20:48.946Z,3.03
2023-06-11T23:23:17.887Z,3.30
2023-06-11T23:25:51.901Z,3.20
2023-06-11T23:28:20.728Z,2.78
2023-06-11T23:30:48.693Z,2.60
2023-06-11T23:33:16.666Z,3.00
2023-06-11T23:35:44.715Z,3.08
2023-06-11T23:38:12.686Z,3.20
2023-06-11T23:40:40.625Z,3.17
2023-06-11T23:43:08.569Z,2.80
2023-06-11T23:45:36.490Z,3.30
2023-06-11T23:48:04.485Z,2.65
2023-06-11T23:50:32.445Z,3.25
2023-06-11T23:53:00.773Z,3.15
2023-06-11T23:55:28.973Z,3.35
2023-06-11T23:58:22.104Z,2.58
